Time;durP1;ratioP1;P1;durP2;ratioP2;P2;SDS_P1;SDS_P2;PMS_P1;PMS_P2;Temp;Humidity;BMP_temperature;BMP_pressure;BME280_temperature;BME280_humidity;BME280_pressure;Samples;Min_cycle;Max_cycle;Signal;HPM_P1;HPM_P2
2024/04/02 00:01:07;;;;;;;6.47;2.60;;;;;;;29.12;27.98;97828.53;7386806;19;20035;-80
2024/04/02 00:03:33;;;;;;;5.10;1.73;;;;;;;29.27;27.85;97833.50;7386970;19;20028;-81
2024/04/02 00:06:00;;;;;;;3.67;1.90;;;;;;;29.13;27.28;97832.88;7385983;19;20018;-80
2024/04/02 00:08:29;;;;;;;5.30;2.53;;;;;;;28.83;27.87;97828.72;7389538;19;20469;-80
2024/04/02 00:11:03;;;;;;;1.17;1.17;;;;;;;28.90;27.96;97841.94;7388892;19;20018;-80
2024/04/02 00:13:30;;;;;;;2.67;1.23;;;;;;;28.80;27.75;97836.53;7386566;19;20021;-80
2024/04/02 00:15:57;;;;;;;10.18;1.98;;;;;;;28.63;28.36;97833.59;7390436;19;20015;-80
2024/04/02 00:18:24;;;;;;;10.85;2.53;;;;;;;28.76;27.96;97833.47;7389426;19;20022;-80
2024/04/02 00:20:51;;;;;;;5.47;1.55;;;;;;;28.94;28.19;97822.03;7387235;19;20018;-79
2024/04/02 00:23:17;;;;;;;3.70;2.03;;;;;;;28.62;28.89;97829.25;7385438;19;20013;-80
2024/04/02 00:25:44;;;;;;;2.00;1.52;;;;;;;29.20;28.34;97835.38;7389879;19;20048;-80
2024/04/02 00:28:13;;;;;;;4.82;2.40;;;;;;;29.28;28.04;97837.84;7389412;19;20052;-80
2024/04/02 00:30:40;;;;;;;1.20;1.08;;;;;;;29.32;28.05;97838.00;7386433;19;20011;-80
2024/04/02 00:33:06;;;;;;;7.05;1.67;;;;;;;28.85;28.02;97846.00;7386564;19;20035;-79
2024/04/02 00:35:32;;;;;;;6.43;1.13;;;;;;;28.99;28.40;97832.28;7391195;19;20017;-80
2024/04/02 00:37:59;;;;;;;2.03;1.58;;;;;;;28.74;28.25;97832.66;7386212;19;20049;-80
2024/04/02 00:40:25;;;;;;;17.67;1.52;;;;;;;29.13;27.88;97835.72;7388129;19;20361;-80
2024/04/02 00:42:51;;;;;;;2.60;1.92;;;;;;;28.94;27.33;97831.38;7385460;19;20018;-80
2024/04/02 00:45:19;;;;;;;1.90;1.05;;;;;;;28.77;27.28;97839.94;7388649;19;20038;-80
2024/04/02 00:47:46;;;;;;;1.23;1.17;;;;;;;28.20;28.24;97842.38;7389893;19;20410;-80
2024/04/02 00:50:13;;;;;;;0.73;0.73;;;;;;;28.02;28.52;97845.19;7387418;19;20025;-80
2024/04/02 00:52:40;;;;;;;1.45;1.20;;;;;;;27.97;28.05;97843.50;7390923;19;20122;-80
2024/04/02 00:55:06;;;;;;;2.40;0.95;;;;;;;27.88;28.27;97846.59;7397093;19;20031;-80
2024/04/02 00:57:32;;;;;;;1.05;0.95;;;;;;;27.68;28.45;97837.78;7394610;19;20353;-80
2024/04/02 01:00:00;;;;;;;0.60;0.60;;;;;;;27.69;28.15;97847.88;7396529;19;20015;-80
2024/04/02 01:02:26;;;;;;;0.50;0.50;;;;;;;27.69;28.24;97848.63;7393682;19;20022;-80
2024/04/02 01:04:52;;;;;;;1.13;1.02;;;;;;;27.37;28.58;97849.16;7393225;19;20011;-80
2024/04/02 01:07:19;;;;;;;1.10;0.98;;;;;;;27.55;28.36;97850.03;7395303;19;20108;-80
2024/04/02 01:09:45;;;;;;;1.20;1.15;;;;;;;27.49;28.22;97846.88;7397802;19;20030;-80
2024/04/02 01:12:11;;;;;;;1.35;1.25;;;;;;;27.42;27.72;97860.16;7393916;19;20014;-80
2024/04/02 01:14:41;;;;;;;1.30;0.90;;;;;;;27.41;27.79;97857.94;7394326;19;20018;-80
2024/04/02 01:17:08;;;;;;;2.15;1.05;;;;;;;27.28;27.89;97850.88;7393783;19;20026;-81
2024/04/02 01:19:35;;;;;;;0.98;0.45;;;;;;;26.85;27.91;97850.88;7395371;19;20040;-81
2024/04/02 01:22:02;;;;;;;3.00;1.08;;;;;;;26.76;27.94;97859.66;7392405;19;20019;-80
2024/04/02 01:24:29;;;;;;;0.85;0.85;;;;;;;26.51;28.46;97863.31;7394172;19;20352;-80
2024/04/02 01:26:56;;;;;;;2.83;0.60;;;;;;;26.15;28.33;97867.09;7395377;19;20394;-80
2024/04/02 01:29:22;;;;;;;4.38;0.90;;;;;;;26.14;28.51;97871.34;7392761;19;20021;-80
2024/04/02 01:31:48;;;;;;;3.70;0.80;;;;;;;26.17;29.09;97879.38;7390018;19;20019;-80
2024/04/02 01:34:17;;;;;;;1.65;1.15;;;;;;;26.09;28.65;97875.34;7390483;19;20354;-80
2024/04/02 01:36:43;;;;;;;1.02;1.02;;;;;;;26.07;28.24;97875.97;7389397;19;20014;-80
2024/04/02 01:39:09;;;;;;;0.75;0.75;;;;;;;26.03;28.77;97877.84;7391414;19;20014;-80
2024/04/02 01:41:35;;;;;;;3.38;1.65;;;;;;;26.08;28.32;97870.97;7390293;19;20035;-80
2024/04/02 01:44:02;;;;;;;9.40;1.38;;;;;;;25.88;28.40;97875.59;7392534;19;20030;-80
2024/04/02 01:46:29;;;;;;;0.30;0.30;;;;;;;25.94;28.24;97875.91;7392124;19;20590;-80
2024/04/02 01:48:55;;;;;;;1.20;1.05;;;;;;;25.93;28.27;97875.16;7392232;19;20014;-80
2024/04/02 01:51:22;;;;;;;0.38;0.38;;;;;;;25.82;28.75;97872.38;7389818;19;20018;-79
2024/04/02 01:53:48;;;;;;;1.35;0.77;;;;;;;25.80;28.69;97883.69;7396245;19;20023;-80
2024/04/02 01:56:14;;;;;;;1.67;0.68;;;;;;;25.94;28.47;97873.81;7394252;19;20052;-79
2024/04/02 01:58:40;;;;;;;0.95;0.95;;;;;;;25.83;28.47;97885.28;7389177;19;20022;-79
2024/04/02 02:01:07;;;;;;;0.40;0.35;;;;;;;25.77;28.67;97874.28;7390726;19;20031;-79
2024/04/02 02:03:33;;;;;;;0.93;0.85;;;;;;;25.70;28.69;97877.44;7389969;19;20023;-79
2024/04/02 02:05:59;;;;;;;0.60;0.57;;;;;;;25.71;28.73;97876.06;7393958;19;20030;-79
2024/04/02 02:08:25;;;;;;;0.65;0.47;;;;;;;25.65;28.75;97878.56;7391318;19;20432;-77
2024/04/02 02:11:02;;;;;;;0.73;0.73;;;;;;;25.76;28.99;97878.50;7392005;19;20014;-78
2024/04/02 02:13:33;;;;;;;0.50;0.50;;;;;;;25.86;28.39;97875.47;7390195;19;20081;-78
2024/04/02 02:16:02;;;;;;;4.82;1.02;;;;;;;25.86;28.42;97879.06;7397872;19;20022;-78
2024/04/02 02:18:29;;;;;;;1.55;0.73;;;;;;;25.81;28.11;97885.94;7393021;19;20085;-78
2024/04/02 02:20:56;;;;;;;1.13;1.02;;;;;;;25.62;28.71;97885.53;7394048;19;20614;-78
2024/04/02 02:23:23;;;;;;;2.72;1.42;;;;;;;25.50;28.41;97894.88;7390425;19;20015;-79
2024/04/02 02:25:49;;;;;;;3.13;1.33;;;;;;;25.39;28.38;97884.25;7394064;19;20010;-79
2024/04/02 02:28:16;;;;;;;1.20;1.10;;;;;;;25.38;28.31;97891.28;7392041;19;20022;-79
2024/04/02 02:30:42;;;;;;;0.30;0.30;;;;;;;25.35;28.34;97884.00;7391142;19;20014;-79
2024/04/02 02:33:08;;;;;;;0.77;0.77;;;;;;;25.47;28.46;97887.56;7391312;19;20022;-79
2024/04/02 02:35:34;;;;;;;0.82;0.82;;;;;;;25.43;28.42;97893.03;7390094;19;20034;-79
2024/04/02 02:38:01;;;;;;;5.68;1.15;;;;;;;25.65;28.10;97895.66;7394840;19;20011;-79
2024/04/02 02:40:29;;;;;;;1.25;1.15;;;;;;;25.72;28.07;97900.34;7391736;19;20014;-79
2024/04/02 02:42:56;;;;;;;0.50;0.50;;;;;;;26.45;27.41;97902.97;7392259;19;20023;-79
2024/04/02 02:45:23;;;;;;;1.73;1.05;;;;;;;25.92;28.52;97907.94;7393200;19;20334;-79
2024/04/02 02:47:50;;;;;;;0.40;0.40;;;;;;;26.06;28.58;97905.09;7391876;19;20030;-79
2024/04/02 02:50:16;;;;;;;0.98;0.80;;;;;;;26.11;28.59;97906.84;7392889;19;20015;-79
2024/04/02 02:52:45;;;;;;;0.40;0.40;;;;;;;26.09;28.55;97915.28;7391087;19;20023;-79
2024/04/02 02:55:11;;;;;;;1.08;1.02;;;;;;;26.11;28.80;97907.59;7392518;19;20373;-79
2024/04/02 02:57:38;;;;;;;1.48;0.82;;;;;;;26.18;28.75;97911.50;7391691;19;20544;-79
2024/04/02 03:00:06;;;;;;;0.60;0.60;;;;;;;26.35;28.64;97919.56;7395067;19;20498;-80
2024/04/02 03:02:35;;;;;;;1.80;1.10;;;;;;;26.46;28.44;97921.59;7390089;19;20018;-79
2024/04/02 03:05:03;;;;;;;2.08;0.90;;;;;;;26.45;28.53;97917.25;7390966;19;20420;-79
2024/04/02 03:07:29;;;;;;;1.40;1.08;;;;;;;26.61;28.74;97923.84;7391075;19;20034;-79
2024/04/02 03:09:55;;;;;;;0.70;0.70;;;;;;;26.70;28.93;97928.59;7392934;19;20018;-79
2024/04/02 03:12:21;;;;;;;4.95;1.67;;;;;;;26.58;28.76;97922.25;7391519;19;20018;-79
2024/04/02 03:14:47;;;;;;;0.70;0.70;;;;;;;26.88;28.76;97929.56;7390582;19;20030;-79
2024/04/02 03:17:14;;;;;;;0.50;0.50;;;;;;;26.85;28.77;97935.81;7390310;19;20018;-79
2024/04/02 03:19:40;;;;;;;0.60;0.60;;;;;;;26.85;28.72;97939.44;7392198;19;20033;-79
2024/04/02 03:22:06;;;;;;;0.60;0.60;;;;;;;26.84;28.47;97935.09;7389424;19;20093;-79
2024/04/02 03:24:32;;;;;;;1.35;1.25;;;;;;;26.83;28.74;97933.59;7390703;19;20516;-79
2024/04/02 03:26:58;;;;;;;0.45;0.45;;;;;;;26.90;29.06;97937.50;7390410;19;20019;-79
2024/04/02 03:29:24;;;;;;;0.80;0.80;;;;;;;27.61;28.26;97944.72;7391002;19;20348;-79
2024/04/02 03:31:51;;;;;;;0.73;0.73;;;;;;;27.87;27.94;97937.44;7390586;19;20465;-79
2024/04/02 03:34:17;;;;;;;4.57;2.40;;;;;;;27.39;28.35;97946.47;7388345;19;20495;-79
2024/04/02 03:36:43;;;;;;;3.65;1.02;;;;;;;26.86;28.87;97955.19;7386682;19;20518;-79
2024/04/02 03:39:09;;;;;;;2.22;0.95;;;;;;;26.89;29.30;97948.22;7388393;19;20415;-79
2024/04/02 03:41:36;;;;;;;1.58;0.88;;;;;;;26.83;29.05;97942.16;7389167;19;20018;-79
2024/04/02 03:44:02;;;;;;;4.97;0.80;;;;;;;26.48;29.26;97938.84;7390480;19;20014;-80
2024/04/02 03:46:28;;;;;;;1.38;1.30;;;;;;;26.29;29.60;97944.94;7388812;19;20345;-80
2024/04/02 03:48:55;;;;;;;0.70;0.70;;;;;;;26.46;29.25;97947.31;7387381;19;20035;-80
2024/04/02 03:51:21;;;;;;;0.82;0.80;;;;;;;26.38;29.38;97946.84;7385630;19;20018;-80
2024/04/02 03:53:47;;;;;;;2.20;1.67;;;;;;;26.79;29.12;97961.22;7388965;19;20018;-80
2024/04/02 03:56:14;;;;;;;3.03;0.95;;;;;;;27.99;28.19;97960.19;7391527;19;20026;-81
2024/04/02 03:58:40;;;;;;;0.50;0.50;;;;;;;27.03;28.66;97960.34;7386811;19;20372;-80
2024/04/02 04:01:09;;;;;;;0.40;0.40;;;;;;;26.73;29.18;97969.44;7384422;19;20481;-80
2024/04/02 04:03:36;;;;;;;2.75;0.90;;;;;;;26.67;29.59;97969.09;7392359;19;20018;-80
2024/04/02 04:06:05;;;;;;;0.85;0.85;;;;;;;26.49;29.19;97960.28;7389331;19;20334;-81
2024/04/02 04:08:32;;;;;;;1.77;0.93;;;;;;;26.49;29.39;97963.16;7388853;19;20018;-80
2024/04/02 04:10:59;;;;;;;7.32;1.17;;;;;;;26.58;29.16;97976.50;7388904;19;20011;-80
2024/04/02 04:13:26;;;;;;;2.83;0.90;;;;;;;26.75;29.04;97975.28;7391453;19;20035;-80
2024/04/02 04:15:59;;;;;;;0.68;0.55;;;;;;;26.83;29.28;97976.44;7386834;19;20456;-80
2024/04/02 04:18:26;;;;;;;0.50;0.50;;;;;;;27.01;29.27;97976.66;7386963;19;20018;-81
2024/04/02 04:20:58;;;;;;;1.10;1.00;;;;;;;26.92;29.51;97981.22;7391220;19;20023;-81
2024/04/02 04:23:24;;;;;;;2.60;0.95;;;;;;;26.72;29.22;97979.38;7391268;19;20501;-81
2024/04/02 04:26:01;;;;;;;1.05;0.60;;;;;;;26.57;29.63;97974.28;7390260;19;20022;-80
2024/04/02 04:28:28;;;;;;;1.17;0.57;;;;;;;26.49;29.38;97968.88;7396491;19;20508;-81
2024/04/02 04:31:02;;;;;;;0.60;0.60;;;;;;;26.50;29.63;97981.78;7398961;19;20362;-80
2024/04/02 04:33:29;;;;;;;2.28;0.85;;;;;;;26.49;29.78;97980.28;7392652;19;20018;-81
2024/04/02 04:35:56;;;;;;;0.75;0.75;;;;;;;26.33;29.68;97996.53;7393011;19;20034;-81
2024/04/02 04:38:25;;;;;;;3.50;1.00;;;;;;;26.20;30.31;97994.38;7393595;19;20525;-80
2024/04/02 04:40:51;;;;;;;6.95;1.73;;;;;;;26.18;30.22;97994.28;7394765;19;20023;-80
2024/04/02 04:43:18;;;;;;;1.75;1.00;;;;;;;26.28;30.14;97989.13;7393078;19;20018;-81
2024/04/02 04:45:55;;;;;;;1.75;1.05;;;;;;;26.61;29.76;97998.09;7396309;19;20411;-81
2024/04/02 04:48:21;;;;;;;0.85;0.47;;;;;;;26.62;29.64;97993.84;7394329;19;20022;-80
2024/04/02 04:51:06;;;;;;;0.95;0.85;;;;;;;26.64;30.20;97996.81;7394585;19;20105;-81
2024/04/02 04:53:33;;;;;;;5.30;0.43;;;;;;;26.62;30.07;98005.28;7392840;19;20022;-80
2024/04/02 04:55:59;;;;;;;0.68;0.68;;;;;;;26.48;29.87;98001.66;7396714;19;20011;-80
2024/04/02 04:58:26;;;;;;;2.00;0.82;;;;;;;26.77;30.15;98004.69;7397399;19;20014;-81
2024/04/02 05:00:53;;;;;;;1.17;1.00;;;;;;;26.82;29.87;98008.50;7394598;19;20070;-81
2024/04/02 05:03:19;;;;;;;7.13;1.67;;;;;;;26.85;29.98;98010.84;7393248;19;20027;-80
2024/04/02 05:05:45;;;;;;;0.60;0.60;;;;;;;26.78;29.80;98011.91;7394529;19;20021;-81
2024/04/02 05:08:17;;;;;;;10.23;1.70;;;;;;;26.87;30.19;98015.91;7395568;19;20022;-83
2024/04/02 05:10:44;;;;;;;0.65;0.63;;;;;;;26.92;29.81;98021.22;7392253;19;20045;-83
2024/04/02 05:13:10;;;;;;;2.25;1.10;;;;;;;26.65;30.01;98029.72;7393145;19;20533;-84
2024/04/02 05:15:36;;;;;;;1.42;0.80;;;;;;;26.52;30.13;98027.56;7395726;19;20022;-84
2024/04/02 05:18:03;;;;;;;2.28;0.68;;;;;;;26.51;30.20;98028.94;7394277;19;20096;-84
2024/04/02 05:20:29;;;;;;;3.95;0.98;;;;;;;26.57;30.12;98037.09;7396930;19;20031;-83
2024/04/02 05:22:55;;;;;;;1.60;1.33;;;;;;;26.52;30.24;98039.00;7390803;19;20021;-84
2024/04/02 05:25:21;;;;;;;1.40;1.15;;;;;;;26.45;30.01;98047.84;7395084;19;20665;-83
2024/04/02 05:27:47;;;;;;;2.60;0.40;;;;;;;26.58;29.89;98047.88;7392943;19;20021;-84
2024/04/02 05:30:13;;;;;;;1.65;0.95;;;;;;;26.63;29.83;98051.72;7395388;19;20018;-81
2024/04/02 05:32:40;;;;;;;0.60;0.60;;;;;;;26.51;30.04;98063.19;7396283;19;20011;-81
2024/04/02 05:35:06;;;;;;;2.35;1.20;;;;;;;26.47;29.82;98062.97;7394395;19;20408;-81
2024/04/02 05:37:33;;;;;;;1.15;0.77;;;;;;;26.41;29.81;98054.06;7392680;19;20414;-81
2024/04/02 05:39:59;;;;;;;8.10;1.42;;;;;;;26.72;29.99;98059.34;7398026;19;20015;-81
2024/04/02 05:42:25;;;;;;;0.90;0.82;;;;;;;26.75;29.63;98064.56;7391085;19;20014;-81
2024/04/02 05:44:51;;;;;;;1.63;1.05;;;;;;;25.98;30.39;98067.28;7394277;19;20377;-81
2024/04/02 05:47:17;;;;;;;1.23;1.13;;;;;;;26.16;30.24;98068.34;7392753;19;20042;-81
2024/04/02 05:49:43;;;;;;;4.50;1.08;;;;;;;26.24;30.22;98063.09;7395510;19;20015;-81
2024/04/02 05:52:09;;;;;;;3.17;2.22;;;;;;;26.58;30.05;98062.16;7393757;19;20019;-82
2024/04/02 05:54:35;;;;;;;3.47;1.02;;;;;;;26.72;29.78;98070.78;7394425;19;20018;-81
2024/04/02 05:57:01;;;;;;;1.08;0.85;;;;;;;26.63;29.70;98075.31;7393430;19;20014;-82
2024/04/02 05:59:27;;;;;;;5.80;2.13;;;;;;;26.40;30.29;98071.84;7396545;19;20516;-81
2024/04/02 06:01:53;;;;;;;2.20;1.13;;;;;;;26.46;30.00;98083.59;7392248;19;20054;-81
2024/04/02 06:04:19;;;;;;;0.25;0.25;;;;;;;26.33;29.88;98080.03;7393056;19;20026;-81
2024/04/02 06:06:48;;;;;;;1.00;0.98;;;;;;;26.39;30.33;98073.94;7390886;19;20022;-81
2024/04/02 06:09:15;;;;;;;3.10;1.30;;;;;;;26.61;30.07;98078.06;7393909;19;20014;-81
2024/04/02 06:11:41;;;;;;;3.13;0.90;;;;;;;26.48;30.02;98093.03;7390612;19;20018;-81
2024/04/02 06:14:07;;;;;;;2.80;1.02;;;;;;;26.46;30.10;98098.63;7389118;19;20357;-81
2024/04/02 06:16:33;;;;;;;2.20;1.45;;;;;;;26.67;30.18;98098.38;7389952;19;20026;-81
2024/04/02 06:18:59;;;;;;;3.05;0.82;;;;;;;27.16;29.70;98106.78;7394303;19;20018;-81
2024/04/02 06:21:25;;;;;;;1.00;1.00;;;;;;;26.77;30.21;98115.34;7392940;19;20021;-81
2024/04/02 06:23:51;;;;;;;6.57;1.35;;;;;;;26.81;30.38;98124.88;7390545;19;20504;-81
2024/04/02 06:26:18;;;;;;;0.70;0.70;;;;;;;26.89;30.54;98130.31;7396801;19;20014;-81
2024/04/02 06:28:44;;;;;;;4.95;1.27;;;;;;;27.12;30.43;98135.84;7390016;19;20536;-81
2024/04/02 06:31:10;;;;;;;2.17;0.60;;;;;;;27.53;30.22;98138.78;7391692;19;20015;-82
2024/04/02 06:33:36;;;;;;;0.75;0.70;;;;;;;27.35;30.45;98146.38;7388371;19;20022;-81
2024/04/02 06:36:03;;;;;;;1.98;1.48;;;;;;;27.37;30.98;98155.09;7393179;19;20014;-81
2024/04/02 06:38:29;;;;;;;1.67;1.52;;;;;;;27.44;30.63;98154.78;7391381;19;20018;-80
2024/04/02 06:40:56;;;;;;;0.82;0.77;;;;;;;27.36;30.79;98151.50;7389571;19;20030;-81
2024/04/02 06:43:22;;;;;;;3.10;1.73;;;;;;;27.45;30.83;98164.09;7389913;19;20015;-82
2024/04/02 06:45:59;;;;;;;1.15;1.00;;;;;;;28.10;30.07;98173.97;7390064;19;20359;-81
2024/04/02 06:48:26;;;;;;;0.95;0.90;;;;;;;28.18;29.96;98172.25;7392094;19;20032;-80
2024/04/02 06:50:59;;;;;;;3.03;1.02;;;;;;;28.30;30.08;98172.16;7389402;19;20528;-80
2024/04/02 06:53:26;;;;;;;3.28;1.30;;;;;;;28.38;29.74;98167.56;7388823;19;20031;-80
2024/04/02 06:55:53;;;;;;;3.97;1.85;;;;;;;29.09;29.58;98171.00;7393553;19;20014;-80
2024/04/02 06:58:20;;;;;;;3.78;1.15;;;;;;;29.14;29.18;98178.41;7389414;19;20025;-80
2024/04/02 07:00:46;;;;;;;11.05;2.90;;;;;;;29.05;29.54;98185.16;7391562;19;20022;-80
2024/04/02 07:03:15;;;;;;;2.83;1.27;;;;;;;28.99;29.81;98193.47;7390128;19;20011;-80
2024/04/02 07:05:45;;;;;;;3.83;1.65;;;;;;;29.18;29.31;98195.84;7388010;19;20051;-81
2024/04/02 07:08:12;;;;;;;2.45;1.13;;;;;;;29.32;29.65;98199.38;7393918;19;20363;-80
2024/04/02 07:10:40;;;;;;;26.95;2.38;;;;;;;29.40;29.65;98208.34;7389769;19;20086;-80
2024/04/02 07:13:06;;;;;;;6.53;1.83;;;;;;;29.14;29.68;98215.69;7388583;19;20026;-80
2024/04/02 07:15:32;;;;;;;7.18;1.63;;;;;;;29.06;29.97;98216.03;7391365;19;20015;-80
2024/04/02 07:17:58;;;;;;;6.63;2.65;;;;;;;28.57;30.40;98211.44;7390782;19;20018;-81
2024/04/02 07:20:24;;;;;;;7.38;2.17;;;;;;;28.10;30.96;98220.53;7392540;19;20019;-81
2024/04/02 07:22:51;;;;;;;9.30;2.45;;;;;;;27.99;31.52;98221.38;7389384;19;20079;-82
2024/04/02 07:25:17;;;;;;;12.07;2.35;;;;;;;28.56;30.75;98222.16;7392574;19;20346;-81
2024/04/02 07:27:46;;;;;;;9.30;2.53;;;;;;;28.59;30.99;98237.34;7392191;19;20015;-81
2024/04/02 07:30:12;;;;;;;3.20;1.63;;;;;;;28.71;31.15;98243.69;7390554;19;20025;-81
2024/04/02 07:32:39;;;;;;;4.72;2.30;;;;;;;29.03;30.90;98248.13;7388727;19;20408;-80
2024/04/02 07:35:05;;;;;;;24.00;4.75;;;;;;;28.96;31.26;98235.63;7391056;19;20102;-81
2024/04/02 07:37:31;;;;;;;5.00;2.53;;;;;;;30.06;29.99;98241.50;7390165;19;20536;-80
2024/04/02 07:39:58;;;;;;;11.77;2.92;;;;;;;30.06;29.74;98247.25;7388478;19;20018;-81
2024/04/02 07:42:24;;;;;;;9.80;3.03;;;;;;;29.53;30.39;98252.69;7390101;19;20019;-81
2024/04/02 07:44:51;;;;;;;15.77;3.53;;;;;;;30.04;30.07;98255.78;7388955;19;20018;-83
2024/04/02 07:47:17;;;;;;;8.38;4.05;;;;;;;29.30;31.19;98259.53;7390086;19;20037;-82
2024/04/02 07:49:43;;;;;;;9.13;3.10;;;;;;;29.10;31.28;98267.13;7386208;19;20343;-81
2024/04/02 07:52:09;;;;;;;15.40;3.80;;;;;;;29.41;30.86;98266.47;7384880;19;20102;-81
2024/04/02 07:54:36;;;;;;;17.95;2.67;;;;;;;29.52;30.53;98277.75;7389022;19;20357;-80
2024/04/02 07:57:02;;;;;;;17.60;3.03;;;;;;;29.49;30.41;98278.31;7382002;19;20025;-81
2024/04/02 07:59:28;;;;;;;9.25;2.15;;;;;;;29.79;30.17;98282.63;7382881;19;20015;-80
2024/04/02 08:01:54;;;;;;;13.07;2.58;;;;;;;29.86;30.33;98270.03;7384756;19;20042;-80
2024/04/02 08:04:20;;;;;;;5.32;3.83;;;;;;;30.40;29.79;98286.13;7384473;19;20517;-80
2024/04/02 08:06:47;;;;;;;4.32;2.53;;;;;;;30.15;30.09;98292.16;7382726;19;20026;-80
2024/04/02 08:09:13;;;;;;;5.13;2.85;;;;;;;29.83;30.66;98292.16;7379395;19;20110;-80
2024/04/02 08:11:42;;;;;;;4.53;1.33;;;;;;;30.17;30.30;98303.75;7380729;19;20011;-81
2024/04/02 08:14:10;;;;;;;7.45;2.63;;;;;;;30.58;29.94;98301.28;7383986;19;20014;-80
2024/04/02 08:16:36;;;;;;;8.60;2.80;;;;;;;30.46;29.85;98303.63;7381330;19;20019;-80
2024/04/02 08:19:02;;;;;;;7.38;3.60;;;;;;;30.53;30.11;98299.63;7383565;19;20511;-81
2024/04/02 08:21:28;;;;;;;4.43;2.50;;;;;;;30.51;30.05;98302.41;7381750;19;20023;-80
2024/04/02 08:23:54;;;;;;;4.63;1.25;;;;;;;30.63;29.86;98300.78;7392374;19;20027;-80
2024/04/02 08:26:20;;;;;;;7.28;2.65;;;;;;;30.66;29.78;98310.25;7392829;19;20024;-80
2024/04/02 08:28:46;;;;;;;6.88;1.92;;;;;;;30.58;29.63;98310.63;7388009;19;20015;-80
2024/04/02 08:31:13;;;;;;;8.60;3.25;;;;;;;30.75;29.71;98305.59;7385170;19;20333;-80
2024/04/02 08:33:39;;;;;;;7.10;2.67;;;;;;;30.57;29.62;98305.53;7389385;19;20029;-80
2024/04/02 08:36:05;;;;;;;5.60;1.85;;;;;;;30.63;29.41;98318.03;7386576;19;20021;-80
2024/04/02 08:38:31;;;;;;;2.55;1.75;;;;;;;30.42;29.50;98324.31;7388874;19;20015;-80
2024/04/02 08:41:03;;;;;;;2.40;1.50;;;;;;;30.72;29.55;98316.25;7387953;19;20022;-80
2024/04/02 08:43:30;;;;;;;5.25;1.75;;;;;;;30.88;29.53;98322.72;7391295;19;20014;-80
2024/04/02 08:45:58;;;;;;;8.27;2.38;;;;;;;30.75;29.37;98332.22;7386685;19;20106;-80
2024/04/02 08:48:25;;;;;;;9.05;1.80;;;;;;;30.94;29.47;98331.59;7387075;19;20051;-78
2024/04/02 08:50:53;;;;;;;5.43;2.25;;;;;;;31.21;29.21;98327.66;7386111;19;20014;-80
2024/04/02 08:53:19;;;;;;;3.72;2.50;;;;;;;31.38;29.02;98327.69;7387877;19;20526;-79
2024/04/02 08:55:46;;;;;;;3.00;1.45;;;;;;;31.60;28.84;98335.78;7390969;19;20014;-80
2024/04/02 08:58:13;;;;;;;2.53;1.60;;;;;;;31.70;28.35;98334.03;7387564;19;20369;-80
2024/04/02 09:00:40;;;;;;;5.18;1.52;;;;;;;31.40;28.59;98327.78;7389430;19;20022;-81
2024/04/02 09:03:07;;;;;;;8.65;2.80;;;;;;;31.43;28.87;98337.25;7388938;19;20014;-81
2024/04/02 09:05:33;;;;;;;3.20;1.23;;;;;;;30.91;29.13;98338.66;7387204;19;20364;-80
2024/04/02 09:08:01;;;;;;;3.47;1.27;;;;;;;31.13;28.63;98339.59;7388934;19;20057;-80
2024/04/02 09:10:30;;;;;;;2.35;1.65;;;;;;;30.25;29.49;98333.56;7386604;19;20077;-81
2024/04/02 09:12:57;;;;;;;2.00;1.10;;;;;;;30.18;29.45;98333.94;7392570;19;20018;-80
2024/04/02 09:15:23;;;;;;;2.20;1.45;;;;;;;30.14;29.77;98330.88;7395537;19;20022;-80
2024/04/02 09:17:49;;;;;;;1.33;0.70;;;;;;;30.11;29.47;98341.53;7394817;19;20027;-81
2024/04/02 09:20:15;;;;;;;1.75;1.20;;;;;;;30.29;29.41;98338.75;7397036;19;20345;-80
2024/04/02 09:22:41;;;;;;;3.28;1.52;;;;;;;30.46;28.82;98340.97;7394798;19;20026;-80
2024/04/02 09:25:11;;;;;;;3.85;1.60;;;;;;;30.77;28.91;98343.78;7395419;19;20018;-80
2024/04/02 09:27:38;;;;;;;3.25;1.08;;;;;;;30.34;29.07;98340.44;7393894;19;20011;-80
2024/04/02 09:30:08;;;;;;;1.50;0.70;;;;;;;30.44;29.23;98343.75;7393589;19;20014;-80
2024/04/02 09:32:38;;;;;;;3.78;1.48;;;;;;;30.61;29.25;98345.94;7392728;19;20017;-80
2024/04/02 09:35:20;;;;;;;1.70;0.85;;;;;;;30.67;28.87;98349.09;7395596;19;20018;-81
2024/04/02 09:37:50;;;;;;;5.60;1.42;;;;;;;30.90;29.01;98353.69;7392439;19;20014;-80
2024/04/02 09:40:17;;;;;;;0.85;0.63;;;;;;;31.21;28.63;98357.19;7392967;19;20027;-81
2024/04/02 09:42:49;;;;;;;0.88;0.82;;;;;;;31.48;28.74;98352.53;7391733;19;20014;-80
2024/04/02 09:45:17;;;;;;;0.70;0.50;;;;;;;31.87;28.27;98349.78;7393531;19;20011;-80
2024/04/02 09:47:45;;;;;;;1.48;1.38;;;;;;;31.49;27.85;98351.88;7392295;19;20015;-80
2024/04/02 09:50:12;;;;;;;1.98;1.20;;;;;;;31.07;27.92;98350.84;7392150;19;20376;-79
2024/04/02 09:52:41;;;;;;;1.60;0.68;;;;;;;30.91;28.20;98355.91;7390949;19;20480;-79
2024/04/02 09:55:09;;;;;;;2.83;0.82;;;;;;;31.31;28.21;98359.75;7393974;19;20020;-80
2024/04/02 09:57:36;;;;;;;2.78;0.70;;;;;;;31.94;28.47;98351.50;7394086;19;20026;-79
2024/04/02 10:00:04;;;;;;;4.10;0.88;;;;;;;32.96;27.77;98339.41;7393548;19;20042;-80
2024/04/02 10:02:39;;;;;;;2.40;0.65;;;;;;;32.62;26.63;98336.81;7392731;19;20014;-80
2024/04/02 10:05:09;;;;;;;4.00;1.67;;;;;;;32.25;27.26;98339.72;7393960;19;20014;-80
2024/04/02 10:07:41;;;;;;;2.97;1.50;;;;;;;32.63;26.95;98331.78;7392413;19;20054;-80
2024/04/02 10:10:07;;;;;;;1.23;0.75;;;;;;;33.36;26.37;98329.22;7394792;19;20014;-80
2024/04/02 10:12:34;;;;;;;0.93;0.47;;;;;;;33.91;26.14;98337.50;7389643;19;20023;-80
2024/04/02 10:15:10;;;;;;;1.05;0.82;;;;;;;34.16;25.86;98337.56;7391106;19;20504;-80
2024/04/02 10:17:37;;;;;;;7.38;0.90;;;;;;;34.00;26.31;98347.91;7392469;19;20022;-79
2024/04/02 10:20:23;;;;;;;2.20;0.98;;;;;;;33.93;26.07;98344.09;7391639;19;20022;-79
2024/04/02 10:22:54;;;;;;;0.68;0.55;;;;;;;34.28;26.13;98346.59;7392934;19;20022;-79
2024/04/02 10:25:20;;;;;;;0.98;0.93;;;;;;;34.56;25.88;98354.63;7393078;19;20022;-79
2024/04/02 10:27:48;;;;;;;2.40;1.08;;;;;;;34.65;25.56;98362.13;7393227;19;20014;-79
2024/04/02 10:30:16;;;;;;;1.55;1.05;;;;;;;34.39;25.28;98364.25;7391678;19;20015;-79
2024/04/02 10:32:43;;;;;;;4.03;1.38;;;;;;;33.55;25.72;98368.84;7393013;19;20011;-80
2024/04/02 10:35:19;;;;;;;3.97;1.48;;;;;;;33.25;25.97;98376.50;7386358;19;20014;-79
2024/04/02 10:37:47;;;;;;;1.13;0.60;;;;;;;33.04;26.40;98371.44;7388701;19;20512;-77
2024/04/02 10:40:14;;;;;;;1.58;0.47;;;;;;;32.96;26.43;98365.38;7392099;19;20050;-80
2024/04/02 10:42:42;;;;;;;1.85;0.80;;;;;;;32.97;26.46;98375.50;7390328;19;20017;-77
2024/04/02 10:45:09;;;;;;;3.20;0.63;;;;;;;33.39;26.21;98376.97;7392594;19;20010;-77
2024/04/02 10:47:36;;;;;;;1.35;0.68;;;;;;;33.58;26.08;98373.28;7392920;19;20022;-77
2024/04/02 10:50:05;;;;;;;1.13;0.60;;;;;;;33.89;25.83;98384.41;7389791;19;20014;-77
2024/04/02 10:52:36;;;;;;;2.33;1.45;;;;;;;34.24;25.44;98384.06;7391065;19;20033;-77
2024/04/02 10:55:04;;;;;;;1.10;0.73;;;;;;;34.27;25.33;98393.53;7395189;19;20015;-77
2024/04/02 10:57:34;;;;;;;2.28;1.15;;;;;;;33.77;25.44;98395.56;7392578;19;20025;-77
2024/04/02 11:00:03;;;;;;;1.55;0.73;;;;;;;33.81;25.88;98398.56;7395067;19;20540;-77
2024/04/02 11:02:29;;;;;;;1.33;0.98;;;;;;;33.88;25.98;98400.25;7392309;19;20029;-77
2024/04/02 11:04:56;;;;;;;3.88;0.80;;;;;;;34.08;25.32;98412.47;7393085;19;20030;-78
2024/04/02 11:07:25;;;;;;;1.17;0.65;;;;;;;33.97;25.51;98407.78;7390243;19;20018;-78
2024/04/02 11:09:52;;;;;;;1.27;0.60;;;;;;;34.11;25.34;98410.38;7391793;19;20014;-78
2024/04/02 11:12:19;;;;;;;2.28;0.80;;;;;;;34.35;24.79;98420.53;7388767;19;20350;-78
2024/04/02 11:14:48;;;;;;;3.28;1.08;;;;;;;34.23;25.41;98417.28;7388479;19;20349;-77
2024/04/02 11:17:14;;;;;;;2.85;0.52;;;;;;;34.76;25.23;98424.63;7390016;19;20026;-77
2024/04/02 11:19:41;;;;;;;1.35;0.65;;;;;;;34.88;24.88;98422.06;7391906;19;20014;-78
2024/04/02 11:25:07;;;;;;;0.30;0.25;;;;;;;34.92;25.03;98437.38;7394050;19;20014;-75
2024/04/02 11:27:33;;;;;;;2.92;2.05;;;;;;;34.86;25.09;98440.13;7388584;19;20025;-76
2024/04/02 11:30:00;;;;;;;0.90;0.47;;;;;;;34.48;24.83;98441.13;7390666;19;20337;-76
2024/04/02 11:32:27;;;;;;;12.88;2.85;;;;;;;34.19;25.20;98434.50;7385451;19;20376;-75
2024/04/02 11:34:55;;;;;;;10.88;1.83;;;;;;;34.22;25.22;98438.91;7383894;19;20019;-75
2024/04/02 11:37:21;;;;;;;1.23;1.05;;;;;;;34.41;25.40;98436.59;7382394;19;20018;-75